KDKK/DKK METAR and TAF weather

Enter ICAO airport designator
Station Type Date Time Source
KDKK METAR 2020/11/25 21:53 UTC NOAA

KDKK 252153Z AUTO 19010KT 9SM -RA BKN029 OVC041 10/08 A2997 RMK AO2 SLP152 P0000 T01000078


Station Type Date Time Source
KDKK Decoded METAR 2020/11/25 21:53 UTC NOAA

CHAUTAUQUA COUNTY/DUNKIRK, NY, United States (KDKK) 42-30N 079-17W 202M
Nov 25, 2020 - 04:53 PM EST / 2020.11.25 2153 UTC
Wind: from the S (190 degrees) at 12 MPH (10 KT):0
Visibility: 9 mile(s):0
Sky conditions: overcast
Weather: light rain
Precipitation last hour: A trace
Temperature: 50.0 F (10.0 C)
Dew Point: 46.0 F (7.8 C)
Relative Humidity: 86%
Pressure (altimeter): 29.97 in. Hg (1014 hPa)
ob: KDKK 252153Z AUTO 19010KT 9SM -RA BKN029 OVC041 10/08 A2997 RMK AO2 SLP152 P0000 T01000078
cycle: 22

Station Type Date Time Source
KDKK TAF UTC NOAA

Error!

Example: see airport list